Time,TemperatureF,DewpointF,PressureIn,WindDirection,WindDirectionDegrees,WindSpeedMPH,WindSpeedGustMPH,Humidity,HourlyPrecipIn,Conditions,Clouds,dailyrainin,SoftwareType,DateUTC
2013-03-14 00:00:00,43.6,28.5,30.15,NW,315,0.9,2.5,55,0.00,,,0.00,WUHU216HW,2013-03-14 06:00:00,
2013-03-14 00:05:00,43.6,29.3,30.15,NNW,338,1.3,2.7,57,0.00,,,0.00,WUHU216HW,2013-03-14 06:05:00,
2013-03-14 00:10:00,43.2,29.8,30.15,North,0,2.0,2.7,59,0.00,,,0.00,WUHU216HW,2013-03-14 06:10:00,
2013-03-14 00:15:00,42.7,28.5,30.15,NE,45,1.8,2.5,57,0.00,,,0.00,WUHU216HW,2013-03-14 06:15:00,
2013-03-14 00:20:00,42.3,28.1,30.15,ENE,68,2.7,2.7,57,0.00,,,0.00,WUHU216HW,2013-03-14 06:20:00,
2013-03-14 00:25:00,42.5,28.3,30.15,East,90,0.0,2.7,57,0.00,,,0.00,WUHU216HW,2013-03-14 06:25:00,
2013-03-14 00:30:00,42.5,28.3,30.15,North,0,0.2,1.8,57,0.00,,,0.00,WUHU216HW,2013-03-14 06:30:00,
2013-03-14 00:35:00,42.3,28.5,30.15,ESE,113,1.8,1.8,58,0.00,,,0.00,WUHU216HW,2013-03-14 06:35:00,
2013-03-14 00:40:00,42.1,28.4,30.15,ESE,113,0.9,1.8,58,0.00,,,0.00,WUHU216HW,2013-03-14 06:40:00,
2013-03-14 00:45:00,41.8,28.0,30.15,SSW,203,0.2,1.8,58,0.00,,,0.00,WUHU216HW,2013-03-14 06:45:00,
2013-03-14 00:50:00,41.2,27.6,30.15,East,90,1.1,1.6,58,0.00,,,0.00,WUHU216HW,2013-03-14 06:50:00,
2013-03-14 00:55:00,40.9,28.1,30.15,East,90,2.5,2.7,60,0.00,,,0.00,WUHU216HW,2013-03-14 06:55:00,
2013-03-14 01:00:00,40.7,27.9,30.14,East,90,2.2,2.7,60,0.00,,,0.00,WUHU216HW,2013-03-14 07:00:00,
2013-03-14 01:05:00,40.7,28.3,30.14,ENE,68,0.0,2.7,61,0.00,,,0.00,WUHU216HW,2013-03-14 07:05:00,
2013-03-14 01:10:00,40.7,28.6,30.14,NNE,23,0.9,1.8,62,0.00,,,0.00,WUHU216HW,2013-03-14 07:10:00,
2013-03-14 01:15:00,40.9,28.8,30.14,West,270,0.9,1.8,62,0.00,,,0.00,WUHU216HW,2013-03-14 07:15:00,
2013-03-14 01:20:00,41.0,29.4,30.14,NW,315,0.4,2.5,63,0.00,,,0.00,WUHU216HW,2013-03-14 07:20:00,
2013-03-14 01:25:00,40.9,28.8,30.15,ENE,68,1.8,2.5,62,0.00,,,0.00,WUHU216HW,2013-03-14 07:25:00,
2013-03-14 01:30:00,40.7,28.6,30.15,ENE,68,2.0,2.5,62,0.00,,,0.00,WUHU216HW,2013-03-14 07:30:00,
2013-03-14 01:35:00,40.3,28.3,30.15,NE,45,2.0,2.5,62,0.00,,,0.00,WUHU216HW,2013-03-14 07:35:00,
2013-03-14 01:40:00,40.1,28.5,30.15,NE,45,0.4,2.2,63,0.00,,,0.00,WUHU216HW,2013-03-14 07:40:00,
2013-03-14 01:45:00,40.0,28.4,30.15,NE,45,1.1,2.2,63,0.00,,,0.00,WUHU216HW,2013-03-14 07:45:00,
2013-03-14 01:50:00,40.0,28.4,30.15,ENE,68,0.7,1.3,63,0.00,,,0.00,WUHU216HW,2013-03-14 07:50:00,
2013-03-14 01:55:00,40.0,28.4,30.15,SSW,203,1.1,1.6,63,0.00,,,0.00,WUHU216HW,2013-03-14 07:55:00,
2013-03-14 02:00:00,39.6,27.5,30.15,ESE,113,0.4,1.6,62,0.00,,,0.00,WUHU216HW,2013-03-14 08:00:00,
2013-03-14 02:05:00,39.2,27.6,30.15,NE,45,1.8,1.8,63,0.00,,,0.00,WUHU216HW,2013-03-14 08:05:00,
2013-03-14 02:10:00,38.9,27.3,30.15,NE,45,2.0,2.0,63,0.00,,,0.00,WUHU216HW,2013-03-14 08:10:00,
2013-03-14 02:15:00,38.5,26.9,30.15,NE,45,1.8,2.0,63,0.00,,,0.00,WUHU216HW,2013-03-14 08:15:00,
2013-03-14 02:20:00,38.5,26.9,30.16,NE,45,1.8,1.8,63,0.00,,,0.00,WUHU216HW,2013-03-14 08:20:00,
2013-03-14 02:25:00,38.5,26.9,30.16,East,90,1.8,1.8,63,0.00,,,0.00,WUHU216HW,2013-03-14 08:25:00,
2013-03-14 02:30:00,38.5,26.9,30.15,East,90,1.1,1.8,63,0.00,,,0.00,WUHU216HW,2013-03-14 08:30:00,
2013-03-14 02:35:00,38.5,26.9,30.16,ENE,68,0.0,1.1,63,0.00,,,0.00,WUHU216HW,2013-03-14 08:35:00,
2013-03-14 02:40:00,38.5,27.4,30.16,ENE,68,0.0,1.1,64,0.00,,,0.00,WUHU216HW,2013-03-14 08:40:00,
2013-03-14 02:45:00,38.7,27.5,30.16,SW,225,0.4,0.4,64,0.00,,,0.00,WUHU216HW,2013-03-14 08:45:00,
2013-03-14 02:50:00,38.9,27.6,30.16,ESE,113,2.2,2.5,64,0.00,,,0.00,WUHU216HW,2013-03-14 08:50:00,
2013-03-14 02:55:00,38.9,27.6,30.15,ENE,68,2.0,2.7,64,0.00,,,0.00,WUHU216HW,2013-03-14 08:55:00,
2013-03-14 03:00:00,38.9,28.0,30.15,East,90,5.1,5.8,65,0.00,,,0.00,WUHU216HW,2013-03-14 09:00:00,
2013-03-14 03:05:00,39.6,29.1,30.15,East,90,2.9,5.8,66,0.00,,,0.00,WUHU216HW,2013-03-14 09:05:00,
2013-03-14 03:10:00,40.3,29.4,30.15,SW,225,1.1,4.0,65,0.00,,,0.00,WUHU216HW,2013-03-14 09:10:00,
2013-03-14 03:15:00,40.0,29.1,30.15,NNW,338,3.1,5.8,65,0.00,,,0.00,WUHU216HW,2013-03-14 09:15:00,
2013-03-14 03:20:00,38.3,28.7,30.15,North,0,2.2,5.8,68,0.00,,,0.00,WUHU216HW,2013-03-14 09:20:00,
2013-03-14 03:25:00,37.8,29.0,30.16,North,0,1.8,2.9,70,0.00,,,0.00,WUHU216HW,2013-03-14 09:25:00,
2013-03-14 03:30:00,37.8,28.5,30.15,SE,135,1.8,1.8,69,0.00,,,0.00,WUHU216HW,2013-03-14 09:30:00,
2013-03-14 03:35:00,37.6,27.6,30.15,ESE,113,1.8,1.8,67,0.00,,,0.00,WUHU216HW,2013-03-14 09:35:00,
2013-03-14 03:40:00,37.4,27.5,30.15,ENE,68,1.8,1.8,67,0.00,,,0.00,WUHU216HW,2013-03-14 09:40:00,
2013-03-14 03:45:00,37.1,27.2,30.16,ESE,113,1.8,1.8,67,0.00,,,0.00,WUHU216HW,2013-03-14 09:45:00,
2013-03-14 03:50:00,36.9,27.0,30.16,East,90,0.0,2.2,67,0.00,,,0.00,WUHU216HW,2013-03-14 09:50:00,
2013-03-14 03:55:00,36.5,27.0,30.16,ENE,68,1.6,3.1,68,0.00,,,0.00,WUHU216HW,2013-03-14 09:55:00,
2013-03-14 04:00:00,36.4,26.8,30.15,ENE,68,2.7,3.1,68,0.00,,,0.00,WUHU216HW,2013-03-14 10:00:00,
2013-03-14 04:05:00,36.2,27.0,30.15,ENE,68,2.7,4.5,69,0.00,,,0.00,WUHU216HW,2013-03-14 10:05:00,
2013-03-14 04:10:00,36.2,27.4,30.15,ENE,68,2.9,4.5,70,0.00,,,0.00,WUHU216HW,2013-03-14 10:10:00,
2013-03-14 04:15:00,36.4,27.5,30.14,ENE,68,4.0,4.9,70,0.00,,,0.00,WUHU216HW,2013-03-14 10:15:00,
2013-03-14 04:20:00,36.5,28.1,30.15,ENE,68,4.7,4.9,71,0.00,,,0.00,WUHU216HW,2013-03-14 10:20:00,
2013-03-14 04:25:00,36.7,27.9,30.15,NE,45,1.1,4.7,70,0.00,,,0.00,WUHU216HW,2013-03-14 10:25:00,
2013-03-14 04:30:00,36.7,27.9,30.15,SW,225,2.5,3.6,70,0.00,,,0.00,WUHU216HW,2013-03-14 10:30:00,
2013-03-14 04:35:00,36.5,27.0,30.15,East,90,2.0,3.6,68,0.00,,,0.00,WUHU216HW,2013-03-14 10:35:00,
2013-03-14 04:40:00,35.8,26.3,30.14,WNW,293,3.4,3.4,68,0.00,,,0.00,WUHU216HW,2013-03-14 10:40:00,
2013-03-14 04:45:00,35.3,27.1,30.14,North,0,0.4,3.6,72,0.00,,,0.00,WUHU216HW,2013-03-14 10:45:00,
2013-03-14 04:50:00,35.1,26.7,30.14,NW,315,0.9,3.6,71,0.00,,,0.00,WUHU216HW,2013-03-14 10:50:00,
2013-03-14 04:55:00,34.9,27.1,30.14,North,0,1.6,2.0,73,0.00,,,0.00,WUHU216HW,2013-03-14 10:55:00,
2013-03-14 05:00:00,34.9,27.7,30.14,NW,315,3.8,4.0,75,0.00,,,0.00,WUHU216HW,2013-03-14 11:00:00,
2013-03-14 05:05:00,34.6,27.7,30.14,NW,315,3.1,4.0,76,0.00,,,0.00,WUHU216HW,2013-03-14 11:05:00,
2013-03-14 05:10:00,34.7,27.9,30.14,North,0,1.3,3.4,76,0.00,,,0.00,WUHU216HW,2013-03-14 11:10:00,
2013-03-14 05:15:00,34.7,27.2,30.14,East,90,0.4,2.5,74,0.00,,,0.00,WUHU216HW,2013-03-14 11:15:00,
2013-03-14 05:20:00,34.6,26.7,30.14,NE,45,1.3,2.2,73,0.00,,,0.00,WUHU216HW,2013-03-14 11:20:00,
2013-03-14 05:25:00,34.2,26.0,30.14,NE,45,2.9,2.9,72,0.00,,,0.00,WUHU216HW,2013-03-14 11:25:00,
2013-03-14 05:30:00,34.6,26.7,30.15,NE,45,0.4,2.9,73,0.00,,,0.00,WUHU216HW,2013-03-14 11:30:00,
2013-03-14 05:35:00,34.7,26.9,30.15,ENE,68,0.0,2.7,73,0.00,,,0.00,WUHU216HW,2013-03-14 11:35:00,
2013-03-14 05:40:00,34.9,27.1,30.15,ENE,68,1.6,2.2,73,0.00,,,0.00,WUHU216HW,2013-03-14 11:40:00,
2013-03-14 05:45:00,34.9,27.1,30.16,NE,45,2.5,3.1,73,0.00,,,0.00,WUHU216HW,2013-03-14 11:45:00,
2013-03-14 05:50:00,34.9,27.1,30.15,NNE,23,3.6,4.0,73,0.00,,,0.00,WUHU216HW,2013-03-14 11:50:00,
2013-03-14 05:55:00,35.1,27.5,30.15,ENE,68,5.1,5.1,74,0.00,,,0.00,WUHU216HW,2013-03-14 11:55:00,
2013-03-14 06:00:00,35.6,28.1,30.16,NNE,23,4.0,5.1,74,0.00,,,0.00,WUHU216HW,2013-03-14 12:00:00,
2013-03-14 06:05:00,35.6,28.1,30.16,NNE,23,1.1,4.7,74,0.00,,,0.00,WUHU216HW,2013-03-14 12:05:00,
2013-03-14 06:10:00,36.2,28.4,30.16,East,90,2.7,3.4,73,0.00,,,0.00,WUHU216HW,2013-03-14 12:10:00,
2013-03-14 06:15:00,36.4,28.5,30.16,NE,45,1.8,2.9,73,0.00,,,0.00,WUHU216HW,2013-03-14 12:15:00,
2013-03-14 06:20:00,36.4,28.2,30.17,East,90,0.7,2.9,72,0.00,,,0.00,WUHU216HW,2013-03-14 12:20:00,
2013-03-14 06:25:00,36.0,27.8,30.16,NE,45,3.4,3.4,72,0.00,,,0.00,WUHU216HW,2013-03-14 12:25:00,
2013-03-14 06:30:00,35.8,28.0,30.17,NW,315,1.6,4.5,73,0.00,,,0.00,WUHU216HW,2013-03-14 12:30:00,
2013-03-14 06:35:00,35.6,27.8,30.17,NNW,338,1.8,4.5,73,0.00,,,0.00,WUHU216HW,2013-03-14 12:35:00,
2013-03-14 06:40:00,34.9,27.7,30.17,NNW,338,2.2,3.4,75,0.00,,,0.00,WUHU216HW,2013-03-14 12:40:00,
2013-03-14 06:45:00,34.7,27.2,30.16,NNE,23,2.2,3.4,74,0.00,,,0.00,WUHU216HW,2013-03-14 12:45:00,
2013-03-14 06:50:00,34.4,26.6,30.17,NE,45,2.7,3.4,73,0.00,,,0.00,WUHU216HW,2013-03-14 12:50:00,
2013-03-14 06:55:00,34.2,26.4,30.17,NE,45,1.8,2.9,73,0.00,,,0.00,WUHU216HW,2013-03-14 12:55:00,
2013-03-14 07:00:00,33.8,26.0,30.16,NNE,23,1.6,2.5,73,0.00,,,0.00,WUHU216HW,2013-03-14 13:00:00,
2013-03-14 07:05:00,33.8,26.0,30.16,NE,45,1.1,1.8,73,0.00,,,0.00,WUHU216HW,2013-03-14 13:05:00,
2013-03-14 07:10:00,33.8,26.0,30.17,NE,45,0.4,1.3,73,0.00,,,0.00,WUHU216HW,2013-03-14 13:10:00,
2013-03-14 07:15:00,33.8,26.0,30.17,SE,135,0.9,0.9,73,0.00,,,0.00,WUHU216HW,2013-03-14 13:15:00,
2013-03-14 07:20:00,33.5,25.7,30.17,SE,135,0.0,0.9,73,0.00,,,0.00,WUHU216HW,2013-03-14 13:20:00,
2013-03-14 07:25:00,33.3,25.5,30.17,ESE,113,1.1,1.1,73,0.00,,,0.00,WUHU216HW,2013-03-14 13:25:00,
2013-03-14 07:30:00,32.8,25.0,30.18,ESE,113,0.9,1.1,73,0.00,,,0.00,WUHU216HW,2013-03-14 13:30:00,
2013-03-14 07:35:00,32.8,25.4,30.17,East,90,0.9,1.3,74,0.00,,,0.00,WUHU216HW,2013-03-14 13:35:00,
2013-03-14 07:40:00,32.9,25.8,30.17,ENE,68,1.6,3.1,75,0.00,,,0.00,WUHU216HW,2013-03-14 13:40:00,
2013-03-14 07:45:00,33.1,26.3,30.17,ENE,68,1.1,3.1,76,0.00,,,0.00,WUHU216HW,2013-03-14 13:45:00,
2013-03-14 07:50:00,33.3,26.5,30.17,ENE,68,0.0,1.3,76,0.00,,,0.00,WUHU216HW,2013-03-14 13:50:00,
2013-03-14 07:55:00,33.3,26.5,30.18,ENE,68,0.0,1.3,76,0.00,,,0.00,WUHU216HW,2013-03-14 13:55:00,
2013-03-14 08:00:00,33.5,26.6,30.18,ENE,68,0.2,0.7,76,0.00,,,0.00,WUHU216HW,2013-03-14 14:00:00,
2013-03-14 08:05:00,33.5,26.6,30.18,ENE,68,0.4,0.7,76,0.00,,,0.00,WUHU216HW,2013-03-14 14:05:00,
2013-03-14 08:10:00,33.7,26.8,30.18,ENE,68,0.0,0.7,76,0.00,,,0.00,WUHU216HW,2013-03-14 14:10:00,
2013-03-14 08:15:00,33.8,27.0,30.18,ENE,68,1.3,1.6,76,0.00,,,0.00,WUHU216HW,2013-03-14 14:15:00,
2013-03-14 08:20:00,34.2,27.4,30.18,ENE,68,1.3,1.8,76,0.00,,,0.00,WUHU216HW,2013-03-14 14:20:00,
2013-03-14 08:25:00,34.9,28.4,30.18,East,90,1.1,1.8,77,0.00,,,0.00,WUHU216HW,2013-03-14 14:25:00,
2013-03-14 08:30:00,35.5,28.9,30.17,ESE,113,2.5,2.5,77,0.00,,,0.00,WUHU216HW,2013-03-14 14:30:00,
2013-03-14 08:35:00,36.0,29.4,30.17,SE,135,0.7,2.5,77,0.00,,,0.00,WUHU216HW,2013-03-14 14:35:00,
2013-03-14 08:40:00,36.7,29.9,30.17,ESE,113,1.8,2.5,76,0.00,,,0.00,WUHU216HW,2013-03-14 14:40:00,
2013-03-14 08:45:00,37.3,30.7,30.17,SE,135,0.2,2.5,77,0.00,,,0.00,WUHU216HW,2013-03-14 14:45:00,
2013-03-14 08:50:00,37.8,31.2,30.17,West,270,3.6,4.0,77,0.00,,,0.00,WUHU216HW,2013-03-14 14:50:00,
2013-03-14 08:55:00,37.3,30.7,30.17,NW,315,2.9,4.3,77,0.00,,,0.00,WUHU216HW,2013-03-14 14:55:00,
2013-03-14 09:00:00,36.5,30.0,30.17,North,0,0.0,4.3,77,0.00,,,0.00,WUHU216HW,2013-03-14 15:00:00,
2013-03-14 09:05:00,36.5,30.0,30.17,North,0,0.0,2.9,77,0.00,,,0.00,WUHU216HW,2013-03-14 15:05:00,
2013-03-14 09:10:00,36.7,30.2,30.17,North,0,0.0,1.1,77,0.00,,,0.00,WUHU216HW,2013-03-14 15:10:00,
2013-03-14 09:15:00,37.1,30.5,30.17,NW,315,1.6,1.6,77,0.00,,,0.00,WUHU216HW,2013-03-14 15:15:00,
2013-03-14 09:20:00,37.4,30.6,30.17,NW,315,0.4,2.0,76,0.00,,,0.00,WUHU216HW,2013-03-14 15:20:00,
2013-03-14 09:25:00,38.0,31.1,30.17,NNW,338,0.2,2.0,76,0.00,,,0.00,WUHU216HW,2013-03-14 15:25:00,
2013-03-14 09:30:00,38.5,31.0,30.17,NNW,338,0.2,1.6,74,0.00,,,0.00,WUHU216HW,2013-03-14 15:30:00,
2013-03-14 09:35:00,39.2,31.2,30.17,NNW,338,1.1,1.1,73,0.00,,,0.00,WUHU216HW,2013-03-14 15:35:00,
2013-03-14 09:40:00,40.1,31.5,30.17,NNW,338,1.1,1.6,71,0.00,,,0.00,WUHU216HW,2013-03-14 15:40:00,
2013-03-14 09:45:00,40.7,31.7,30.17,NNW,338,1.8,1.8,70,0.00,,,0.00,WUHU216HW,2013-03-14 15:45:00,
2013-03-14 09:50:00,41.0,31.7,30.18,NW,315,2.2,4.0,69,0.00,,,0.00,WUHU216HW,2013-03-14 15:50:00,
2013-03-14 09:55:00,41.6,31.8,30.18,NW,315,1.8,4.7,68,0.00,,,0.00,WUHU216HW,2013-03-14 15:55:00,
2013-03-14 10:00:00,42.3,32.5,30.17,NNE,23,2.5,4.7,68,0.00,,,0.00,WUHU216HW,2013-03-14 16:00:00,
2013-03-14 10:05:00,43.6,33.0,30.18,NNE,23,0.2,2.5,66,0.00,,,0.00,WUHU216HW,2013-03-14 16:05:00,
2013-03-14 10:10:00,44.6,33.6,30.18,NW,315,0.7,2.0,65,0.00,,,0.00,WUHU216HW,2013-03-14 16:10:00,
2013-03-14 10:15:00,45.7,33.4,30.18,WNW,293,1.8,2.5,62,0.00,,,0.00,WUHU216HW,2013-03-14 16:15:00,
2013-03-14 10:20:00,46.4,34.1,30.18,WNW,293,1.8,2.5,62,0.00,,,0.00,WUHU216HW,2013-03-14 16:20:00,
2013-03-14 10:25:00,47.2,34.0,30.17,West,270,2.5,2.5,60,0.00,,,0.00,WUHU216HW,2013-03-14 16:25:00,
2013-03-14 10:30:00,47.9,33.9,30.17,WSW,248,1.1,2.5,58,0.00,,,0.00,WUHU216HW,2013-03-14 16:30:00,
2013-03-14 10:35:00,48.2,34.2,30.17,West,270,0.0,1.8,58,0.00,,,0.00,WUHU216HW,2013-03-14 16:35:00,
2013-03-14 10:40:00,48.8,34.7,30.16,SE,135,2.0,2.0,58,0.00,,,0.00,WUHU216HW,2013-03-14 16:40:00,
2013-03-14 10:45:00,49.3,34.8,30.16,SW,225,1.1,2.0,57,0.00,,,0.00,WUHU216HW,2013-03-14 16:45:00,
2013-03-14 10:50:00,49.7,34.6,30.16,SW,225,1.8,3.1,56,0.00,,,0.00,WUHU216HW,2013-03-14 16:50:00,
2013-03-14 10:55:00,50.2,34.7,30.16,WSW,248,2.7,3.1,55,0.00,,,0.00,WUHU216HW,2013-03-14 16:55:00,
2013-03-14 11:00:00,50.8,34.7,30.16,SW,225,3.1,3.1,54,0.00,,,0.00,WUHU216HW,2013-03-14 17:00:00,
2013-03-14 11:05:00,51.3,34.8,30.16,WSW,248,2.2,3.4,53,0.00,,,0.00,WUHU216HW,2013-03-14 17:05:00,
2013-03-14 11:10:00,51.7,34.6,30.16,WNW,293,3.4,3.4,52,0.00,,,0.00,WUHU216HW,2013-03-14 17:10:00,
2013-03-14 11:15:00,52.2,35.1,30.16,WSW,248,2.0,3.4,52,0.00,,,0.00,WUHU216HW,2013-03-14 17:15:00,
2013-03-14 11:20:00,52.6,34.9,30.16,West,270,0.9,2.2,51,0.00,,,0.00,WUHU216HW,2013-03-14 17:20:00,
2013-03-14 11:25:00,53.3,35.7,30.16,SW,225,0.9,2.2,51,0.00,,,0.00,WUHU216HW,2013-03-14 17:25:00,
2013-03-14 11:30:00,53.8,36.1,30.16,SSE,158,2.0,2.0,51,0.00,,,0.00,WUHU216HW,2013-03-14 17:30:00,
2013-03-14 11:35:00,54.4,36.1,30.16,SE,135,0.9,3.1,50,0.00,,,0.00,WUHU216HW,2013-03-14 17:35:00,
2013-03-14 11:40:00,54.9,36.6,30.16,SSE,158,2.0,3.1,50,0.00,,,0.00,WUHU216HW,2013-03-14 17:40:00,
2013-03-14 11:45:00,55.6,37.3,30.15,SW,225,2.5,2.5,50,0.00,,,0.00,WUHU216HW,2013-03-14 17:45:00,
2013-03-14 11:50:00,56.2,36.1,30.15,SSW,203,1.8,2.9,47,0.00,,,0.00,WUHU216HW,2013-03-14 17:50:00,
2013-03-14 11:55:00,56.5,36.5,30.15,SSW,203,0.4,2.9,47,0.00,,,0.00,WUHU216HW,2013-03-14 17:55:00,
2013-03-14 12:00:00,56.9,36.3,30.14,SSW,203,3.1,3.1,46,0.00,,,0.00,WUHU216HW,2013-03-14 18:00:00,
2013-03-14 12:05:00,57.4,36.7,30.14,SSE,158,3.6,3.6,46,0.00,,,0.00,WUHU216HW,2013-03-14 18:05:00,
2013-03-14 12:10:00,58.1,36.3,30.14,South,180,2.2,4.0,44,0.00,,,0.00,WUHU216HW,2013-03-14 18:10:00,
2013-03-14 12:15:00,58.7,36.7,30.14,SSE,158,4.5,5.1,44,0.00,,,0.00,WUHU216HW,2013-03-14 18:15:00,
2013-03-14 12:20:00,59.0,36.5,30.14,SW,225,2.5,5.1,43,0.00,,,0.00,WUHU216HW,2013-03-14 18:20:00,
2013-03-14 12:25:00,59.2,34.9,30.14,ESE,113,2.2,2.5,40,0.00,,,0.00,WUHU216HW,2013-03-14 18:25:00,
2013-03-14 12:30:00,59.4,34.4,30.14,SW,225,2.5,2.9,39,0.00,,,0.00,WUHU216HW,2013-03-14 18:30:00,
2013-03-14 12:35:00,59.9,35.6,30.14,ESE,113,3.1,3.1,40,0.00,,,0.00,WUHU216HW,2013-03-14 18:35:00,
2013-03-14 12:40:00,60.5,36.0,30.14,SSW,203,3.1,3.1,40,0.00,,,0.00,WUHU216HW,2013-03-14 18:40:00,
2013-03-14 12:45:00,60.8,36.4,30.14,SE,135,1.1,3.1,40,0.00,,,0.00,WUHU216HW,2013-03-14 18:45:00,
2013-03-14 12:50:00,60.8,36.4,30.14,ESE,113,1.1,2.2,40,0.00,,,0.00,WUHU216HW,2013-03-14 18:50:00,
2013-03-14 12:55:00,61.0,35.8,30.14,SSE,158,1.8,3.4,39,0.00,,,0.00,WUHU216HW,2013-03-14 18:55:00,
2013-03-14 13:00:00,60.8,36.4,30.14,SSW,203,2.5,3.4,40,0.00,,,0.00,WUHU216HW,2013-03-14 19:00:00,
2013-03-14 13:05:00,60.5,36.0,30.14,South,180,1.3,3.1,40,0.00,,,0.00,WUHU216HW,2013-03-14 19:05:00,
2013-03-14 13:10:00,60.5,36.0,30.14,SSE,158,1.1,2.5,40,0.00,,,0.00,WUHU216HW,2013-03-14 19:10:00,
2013-03-14 13:15:00,60.5,35.3,30.13,WSW,248,3.1,3.1,39,0.00,,,0.00,WUHU216HW,2013-03-14 19:15:00,
2013-03-14 13:20:00,60.5,35.3,30.13,SSE,158,1.1,3.1,39,0.00,,,0.00,WUHU216HW,2013-03-14 19:20:00,
2013-03-14 13:25:00,60.3,35.2,30.13,SSE,158,1.1,2.0,39,0.00,,,0.00,WUHU216HW,2013-03-14 19:25:00,
2013-03-14 13:30:00,60.1,35.0,30.13,SW,225,0.7,3.1,39,0.00,,,0.00,WUHU216HW,2013-03-14 19:30:00,
2013-03-14 13:35:00,60.1,35.0,30.12,SE,135,0.7,3.1,39,0.00,,,0.00,WUHU216HW,2013-03-14 19:35:00,
2013-03-14 13:40:00,60.3,35.9,30.12,SSE,158,0.4,2.0,40,0.00,,,0.00,WUHU216HW,2013-03-14 19:40:00,
2013-03-14 13:45:00,60.7,35.5,30.12,SSW,203,1.8,2.2,39,0.00,,,0.00,WUHU216HW,2013-03-14 19:45:00,
2013-03-14 13:50:00,61.2,36.0,30.12,SSW,203,1.1,2.2,39,0.00,,,0.00,WUHU216HW,2013-03-14 19:50:00,
2013-03-14 13:55:00,61.6,36.3,30.11,SSE,158,1.1,2.2,39,0.00,,,0.00,WUHU216HW,2013-03-14 19:55:00,
2013-03-14 14:00:00,61.9,35.9,30.11,South,180,2.0,2.2,38,0.00,,,0.00,WUHU216HW,2013-03-14 20:00:00,
2013-03-14 14:05:00,62.1,36.1,30.10,SE,135,1.1,2.0,38,0.00,,,0.00,WUHU216HW,2013-03-14 20:05:00,
2013-03-14 14:10:00,62.3,35.5,30.10,SSW,203,2.5,2.5,37,0.00,,,0.00,WUHU216HW,2013-03-14 20:10:00,
2013-03-14 14:15:00,62.3,35.5,30.10,SW,225,2.0,2.5,37,0.00,,,0.00,WUHU216HW,2013-03-14 20:15:00,
2013-03-14 14:20:00,62.3,34.7,30.10,West,270,1.6,3.8,36,0.00,,,0.00,WUHU216HW,2013-03-14 20:20:00,
2013-03-14 14:25:00,62.1,33.2,30.09,SW,225,4.9,6.0,34,0.00,,,0.00,WUHU216HW,2013-03-14 20:25:00,
2013-03-14 14:30:00,62.3,33.3,30.09,WSW,248,5.4,6.0,34,0.00,,,0.00,WUHU216HW,2013-03-14 20:30:00,
2013-03-14 14:35:00,62.6,32.9,30.09,SW,225,3.4,5.6,33,0.00,,,0.00,WUHU216HW,2013-03-14 20:35:00,
2013-03-14 14:40:00,63.0,33.3,30.09,SW,225,2.7,4.0,33,0.00,,,0.00,WUHU216HW,2013-03-14 20:40:00,
2013-03-14 14:45:00,63.2,33.4,30.08,SW,225,4.0,4.3,33,0.00,,,0.00,WUHU216HW,2013-03-14 20:45:00,
2013-03-14 14:50:00,63.2,34.1,30.08,WSW,248,2.5,4.3,34,0.00,,,0.00,WUHU216HW,2013-03-14 20:50:00,
2013-03-14 14:55:00,63.4,33.6,30.08,SSW,203,1.8,3.8,33,0.00,,,0.00,WUHU216HW,2013-03-14 20:55:00,
2013-03-14 15:00:00,63.5,34.5,30.08,SSE,158,2.5,3.6,34,0.00,,,0.00,WUHU216HW,2013-03-14 21:00:00,
2013-03-14 15:05:00,63.9,34.8,30.08,SSE,158,0.4,2.5,34,0.00,,,0.00,WUHU216HW,2013-03-14 21:05:00,
2013-03-14 15:10:00,64.6,34.8,30.07,SSW,203,3.1,3.1,33,0.00,,,0.00,WUHU216HW,2013-03-14 21:10:00,
2013-03-14 15:15:00,65.0,35.7,30.07,South,180,1.8,3.6,34,0.00,,,0.00,WUHU216HW,2013-03-14 21:15:00,
2013-03-14 15:20:00,65.5,35.6,30.07,South,180,3.1,4.3,33,0.00,,,0.00,WUHU216HW,2013-03-14 21:20:00,
2013-03-14 15:25:00,65.9,35.8,30.06,SE,135,5.1,5.1,33,0.00,,,0.00,WUHU216HW,2013-03-14 21:25:00,
2013-03-14 15:30:00,66.4,36.4,30.06,SSE,158,4.9,5.1,33,0.00,,,0.00,WUHU216HW,2013-03-14 21:30:00,
2013-03-14 15:35:00,67.0,36.8,30.06,SSE,158,3.6,5.1,33,0.00,,,0.00,WUHU216HW,2013-03-14 21:35:00,
2013-03-14 15:40:00,67.5,36.5,30.06,South,180,0.9,5.1,32,0.00,,,0.00,WUHU216HW,2013-03-14 21:40:00,
2013-03-14 15:45:00,67.7,34.2,30.06,South,180,2.0,4.0,29,0.00,,,0.00,WUHU216HW,2013-03-14 21:45:00,
2013-03-14 15:50:00,67.7,32.2,30.06,SSW,203,4.9,8.1,27,0.00,,,0.00,WUHU216HW,2013-03-14 21:50:00,
2013-03-14 15:55:00,67.9,34.3,30.06,South,180,4.7,8.1,29,0.00,,,0.00,WUHU216HW,2013-03-14 21:55:00,
2013-03-14 16:00:00,68.2,33.7,30.05,SSE,158,2.5,8.1,28,0.00,,,0.00,WUHU216HW,2013-03-14 22:00:00,
2013-03-14 16:05:00,68.6,34.9,30.05,SSE,158,2.7,8.1,29,0.00,,,0.00,WUHU216HW,2013-03-14 22:05:00,
2013-03-14 16:10:00,68.2,31.7,30.05,SE,135,5.6,7.6,26,0.00,,,0.00,WUHU216HW,2013-03-14 22:10:00,
2013-03-14 16:15:00,67.7,34.2,30.05,SSE,158,6.0,8.5,29,0.00,,,0.00,WUHU216HW,2013-03-14 22:15:00,
2013-03-14 16:20:00,67.0,30.6,30.04,SSW,203,4.7,9.8,26,0.00,,,0.00,WUHU216HW,2013-03-14 22:20:00,
2013-03-14 16:25:00,66.6,33.3,30.04,SE,135,6.3,9.8,29,0.00,,,0.00,WUHU216HW,2013-03-14 22:25:00,
2013-03-14 16:31:00,66.1,33.8,30.04,SSE,158,7.6,7.6,30,0.00,,,0.00,WUHU216HW,2013-03-14 22:31:00,
2013-03-14 16:36:00,65.3,33.2,30.03,SSE,158,8.5,9.2,30,0.00,,,0.00,WUHU216HW,2013-03-14 22:36:00,
2013-03-14 16:40:00,64.8,32.8,30.03,SSE,158,5.4,9.2,30,0.00,,,0.00,WUHU216HW,2013-03-14 22:40:00,
2013-03-14 16:45:00,64.3,32.2,30.03,South,180,6.5,8.5,30,0.00,,,0.00,WUHU216HW,2013-03-14 22:45:00,
2013-03-14 16:50:00,63.7,31.8,30.04,South,180,8.3,8.5,30,0.00,,,0.00,WUHU216HW,2013-03-14 22:50:00,
2013-03-14 16:55:00,63.5,31.6,30.03,South,180,6.7,8.3,30,0.00,,,0.00,WUHU216HW,2013-03-14 22:55:00,
2013-03-14 17:00:00,63.4,31.4,30.03,SSE,158,7.6,8.5,30,0.00,,,0.00,WUHU216HW,2013-03-14 23:00:00,
2013-03-14 17:05:00,63.4,32.1,30.03,SE,135,8.1,9.6,31,0.00,,,0.00,WUHU216HW,2013-03-14 23:05:00,
2013-03-14 17:10:00,63.2,32.0,30.03,SSE,158,6.3,9.6,31,0.00,,,0.00,WUHU216HW,2013-03-14 23:10:00,
2013-03-14 17:15:00,63.2,32.0,30.03,SSE,158,4.3,6.9,31,0.00,,,0.00,WUHU216HW,2013-03-14 23:15:00,
2013-03-14 17:20:00,63.0,31.9,30.03,SSE,158,4.9,6.3,31,0.00,,,0.00,WUHU216HW,2013-03-14 23:20:00,
2013-03-14 17:26:00,63.0,31.9,30.03,SE,135,5.8,6.3,31,0.00,,,0.00,WUHU216HW,2013-03-14 23:26:00,
2013-03-14 17:31:00,62.8,31.0,30.02,SE,135,5.8,7.4,30,0.00,,,0.00,WUHU216HW,2013-03-14 23:31:00,
2013-03-14 17:36:00,62.6,31.5,30.02,SE,135,6.3,8.5,31,0.00,,,0.00,WUHU216HW,2013-03-14 23:36:00,
2013-03-14 17:41:00,62.3,31.1,30.02,SSE,158,5.1,8.5,31,0.00,,,0.00,WUHU216HW,2013-03-14 23:41:00,
2013-03-14 17:46:00,62.1,31.1,30.02,SE,135,9.2,9.2,31,0.00,,,0.00,WUHU216HW,2013-03-14 23:46:00,
2013-03-14 17:52:00,61.7,31.4,30.02,SSE,158,6.3,11.4,32,0.00,,,0.00,WUHU216HW,2013-03-14 23:52:00,
2013-03-14 17:57:00,61.6,31.2,30.02,South,180,4.9,11.4,32,0.00,,,0.00,WUHU216HW,2013-03-14 23:57:00,
2013-03-14 18:02:00,61.4,31.1,30.02,SSE,158,7.2,8.5,32,0.00,,,0.00,WUHU216HW,2013-03-15 00:02:00,
2013-03-14 18:07:00,61.0,31.5,30.02,SSE,158,6.9,7.6,33,0.00,,,0.00,WUHU216HW,2013-03-15 00:07:00,
2013-03-14 18:12:00,60.8,31.3,30.01,SSE,158,5.8,7.2,33,0.00,,,0.00,WUHU216HW,2013-03-15 00:12:00,
2013-03-14 18:17:00,60.5,31.1,30.02,SSE,158,4.7,6.9,33,0.00,,,0.00,WUHU216HW,2013-03-15 00:17:00,
2013-03-14 18:22:00,60.1,30.7,30.02,SSE,158,4.5,5.4,33,0.00,,,0.00,WUHU216HW,2013-03-15 00:22:00,
2013-03-14 18:27:00,59.8,31.2,30.01,SSE,158,3.4,6.3,34,0.00,,,0.00,WUHU216HW,2013-03-15 00:27:00,
2013-03-14 18:32:00,59.2,30.7,30.01,SSE,158,3.4,6.3,34,0.00,,,0.00,WUHU216HW,2013-03-15 00:32:00,
2013-03-14 18:37:00,58.9,31.1,30.01,SSE,158,3.1,5.1,35,0.00,,,0.00,WUHU216HW,2013-03-15 00:37:00,
2013-03-14 18:42:00,58.7,30.9,30.01,South,180,2.2,4.0,35,0.00,,,0.00,WUHU216HW,2013-03-15 00:42:00,
2013-03-14 18:47:00,58.3,31.3,30.01,SSE,158,3.1,4.0,36,0.00,,,0.00,WUHU216HW,2013-03-15 00:47:00,
2013-03-14 18:52:00,58.0,31.0,30.01,SE,135,1.3,4.0,36,0.00,,,0.00,WUHU216HW,2013-03-15 00:52:00,
2013-03-14 18:57:00,57.6,30.6,30.00,SE,135,2.0,2.9,36,0.00,,,0.00,WUHU216HW,2013-03-15 00:57:00,
2013-03-14 19:02:00,57.2,30.3,30.00,SE,135,0.7,2.5,36,0.00,,,0.00,WUHU216HW,2013-03-15 01:02:00,
2013-03-14 19:07:00,56.9,30.7,30.00,SSE,158,0.7,2.0,37,0.00,,,0.00,WUHU216HW,2013-03-15 01:07:00,
2013-03-14 19:12:00,56.5,30.3,30.00,SW,225,2.9,2.9,37,0.00,,,0.00,WUHU216HW,2013-03-15 01:12:00,
2013-03-14 19:17:00,56.2,30.1,29.99,South,180,4.3,5.1,37,0.00,,,0.00,WUHU216HW,2013-03-15 01:17:00,
2013-03-14 19:22:00,55.8,29.7,30.00,SSE,158,4.0,7.2,37,0.00,,,0.00,WUHU216HW,2013-03-15 01:22:00,
2013-03-14 19:27:00,55.8,29.7,30.00,SSE,158,3.6,7.2,37,0.00,,,0.00,WUHU216HW,2013-03-15 01:27:00,
2013-03-14 19:32:00,55.3,30.0,30.00,SSE,158,2.2,4.0,38,0.00,,,0.00,WUHU216HW,2013-03-15 01:32:00,
2013-03-14 19:37:00,54.7,29.4,30.00,SE,135,0.9,3.6,38,0.00,,,0.00,WUHU216HW,2013-03-15 01:37:00,
2013-03-14 19:42:00,54.0,29.5,30.00,ESE,113,2.5,2.5,39,0.00,,,0.00,WUHU216HW,2013-03-15 01:42:00,
2013-03-14 19:47:00,53.6,29.2,30.00,East,90,1.6,2.5,39,0.00,,,0.00,WUHU216HW,2013-03-15 01:47:00,
2013-03-14 19:52:00,53.5,29.1,30.00,East,90,2.2,2.5,39,0.00,,,0.00,WUHU216HW,2013-03-15 01:52:00,
2013-03-14 19:57:00,53.1,28.7,30.00,East,90,2.0,2.2,39,0.00,,,0.00,WUHU216HW,2013-03-15 01:57:00,
2013-03-14 20:02:00,52.9,28.5,30.00,ENE,68,3.6,3.6,39,0.00,,,0.00,WUHU216HW,2013-03-15 02:02:00,
2013-03-14 20:07:00,52.6,28.3,30.00,South,180,6.3,6.3,39,0.00,,,0.00,WUHU216HW,2013-03-15 02:07:00,
2013-03-14 20:12:00,52.7,29.1,29.99,SE,135,4.0,6.3,40,0.00,,,0.00,WUHU216HW,2013-03-15 02:12:00,
2013-03-14 20:17:00,52.9,29.3,29.99,SE,135,5.4,5.8,40,0.00,,,0.00,WUHU216HW,2013-03-15 02:17:00,
2013-03-14 20:22:00,53.3,28.9,29.99,SW,225,3.8,6.7,39,0.00,,,0.00,WUHU216HW,2013-03-15 02:22:00,
2013-03-14 20:27:00,53.1,28.7,29.99,South,180,1.6,6.7,39,0.00,,,0.00,WUHU216HW,2013-03-15 02:27:00,
2013-03-14 20:32:00,52.9,28.5,29.99,South,180,2.9,4.0,39,0.00,,,0.00,WUHU216HW,2013-03-15 02:32:00,
2013-03-14 20:37:00,52.4,28.7,29.99,SE,135,2.9,4.0,40,0.00,,,0.00,WUHU216HW,2013-03-15 02:37:00,
2013-03-14 20:42:00,51.8,28.8,29.99,SSE,158,4.9,4.9,41,0.00,,,0.00,WUHU216HW,2013-03-15 02:42:00,
2013-03-14 20:47:00,51.5,28.5,29.99,SE,135,2.7,5.6,41,0.00,,,0.00,WUHU216HW,2013-03-15 02:47:00,
2013-03-14 20:52:00,51.1,28.2,29.99,SE,135,2.9,5.6,41,0.00,,,0.00,WUHU216HW,2013-03-15 02:52:00,
2013-03-14 20:57:00,50.8,28.5,29.99,SE,135,3.1,3.4,42,0.00,,,0.00,WUHU216HW,2013-03-15 02:57:00,
2013-03-14 21:02:00,50.4,28.1,29.99,SE,135,3.4,3.4,42,0.00,,,0.00,WUHU216HW,2013-03-15 03:02:00,
2013-03-14 21:07:00,50.0,27.7,29.99,South,180,4.0,4.0,42,0.00,,,0.00,WUHU216HW,2013-03-15 03:07:00,
2013-03-14 21:12:00,49.7,28.0,29.99,SE,135,2.2,4.0,43,0.00,,,0.00,WUHU216HW,2013-03-15 03:12:00,
2013-03-14 21:17:00,49.3,27.6,29.99,SE,135,2.5,2.9,43,0.00,,,0.00,WUHU216HW,2013-03-15 03:17:00,
2013-03-14 21:22:00,49.1,27.5,29.99,SSE,158,1.1,3.4,43,0.00,,,0.00,WUHU216HW,2013-03-15 03:22:00,
2013-03-14 21:27:00,49.0,27.3,29.99,SE,135,4.0,4.0,43,0.00,,,0.00,WUHU216HW,2013-03-15 03:27:00,
2013-03-14 21:32:00,48.6,27.6,29.99,SE,135,4.7,4.7,44,0.00,,,0.00,WUHU216HW,2013-03-15 03:32:00,
2013-03-14 21:37:00,48.6,27.6,29.99,SSE,158,2.5,4.7,44,0.00,,,0.00,WUHU216HW,2013-03-15 03:37:00,
2013-03-14 21:42:00,48.4,27.9,29.99,SSE,158,5.6,5.6,45,0.00,,,0.00,WUHU216HW,2013-03-15 03:42:00,
2013-03-14 21:47:00,48.2,27.7,29.99,SSE,158,5.1,5.6,45,0.00,,,0.00,WUHU216HW,2013-03-15 03:47:00,
2013-03-14 21:52:00,48.2,27.7,29.99,SE,135,6.3,6.5,45,0.00,,,0.00,WUHU216HW,2013-03-15 03:52:00,
2013-03-14 21:57:00,48.6,28.6,29.98,SE,135,9.8,11.4,46,0.00,,,0.00,WUHU216HW,2013-03-15 03:57:00,
2013-03-14 22:00:00,48.8,28.8,29.99,SE,135,7.4,11.4,46,0.00,,,0.00,WUHU216HW,2013-03-15 04:00:00,
2013-03-14 22:05:00,49.3,28.7,29.98,SE,135,6.9,11.4,45,0.00,,,0.00,WUHU216HW,2013-03-15 04:05:00,
2013-03-14 22:10:00,49.7,28.5,29.98,SE,135,9.4,9.8,44,0.00,,,0.00,WUHU216HW,2013-03-15 04:10:00,
2013-03-14 22:15:00,50.4,28.1,29.98,SE,135,10.7,10.7,42,0.00,,,0.00,WUHU216HW,2013-03-15 04:15:00,
2013-03-14 22:20:00,51.1,28.7,29.98,ESE,113,10.5,11.2,42,0.00,,,0.00,WUHU216HW,2013-03-15 04:20:00,
2013-03-14 22:25:00,51.5,28.5,29.98,SE,135,8.7,13.0,41,0.00,,,0.00,WUHU216HW,2013-03-15 04:25:00,
2013-03-14 22:30:00,51.5,28.5,29.97,ESE,113,15.0,15.0,41,0.00,,,0.00,WUHU216HW,2013-03-15 04:30:00,
2013-03-14 22:35:00,51.7,28.1,29.98,SE,135,9.6,15.0,40,0.00,,,0.00,WUHU216HW,2013-03-15 04:35:00,
2013-03-14 22:40:00,51.5,28.5,29.98,ESE,113,6.5,15.0,41,0.00,,,0.00,WUHU216HW,2013-03-15 04:40:00,
2013-03-14 22:45:00,51.1,28.2,29.98,SSE,158,4.0,9.2,41,0.00,,,0.00,WUHU216HW,2013-03-15 04:45:00,
2013-03-14 22:50:00,50.8,28.5,29.98,SE,135,7.2,8.3,42,0.00,,,0.00,WUHU216HW,2013-03-15 04:50:00,
2013-03-14 22:55:00,50.6,28.3,29.99,South,180,10.5,10.5,42,0.00,,,0.00,WUHU216HW,2013-03-15 04:55:00,
2013-03-14 23:00:00,50.4,28.6,29.99,SSE,158,8.7,10.5,43,0.00,,,0.00,WUHU216HW,2013-03-15 05:00:00,
2013-03-14 23:05:00,50.2,27.9,29.98,SE,135,7.6,10.1,42,0.00,,,0.00,WUHU216HW,2013-03-15 05:05:00,
2013-03-14 23:10:00,50.0,27.7,29.98,SE,135,8.1,8.5,42,0.00,,,0.00,WUHU216HW,2013-03-15 05:10:00,
2013-03-14 23:15:00,50.4,28.1,29.98,SE,135,5.4,8.9,42,0.00,,,0.00,WUHU216HW,2013-03-15 05:15:00,
2013-03-14 23:20:00,50.8,28.5,29.97,ESE,113,8.5,8.9,42,0.00,,,0.00,WUHU216HW,2013-03-15 05:20:00,
2013-03-14 23:25:00,50.9,28.5,29.97,SSE,158,10.5,10.5,42,0.00,,,0.00,WUHU216HW,2013-03-15 05:25:00,
2013-03-14 23:30:00,51.1,29.3,29.97,SE,135,8.1,11.6,43,0.00,,,0.00,WUHU216HW,2013-03-15 05:30:00,
2013-03-14 23:35:00,50.9,28.5,29.97,SSE,158,5.8,11.6,42,0.00,,,0.00,WUHU216HW,2013-03-15 05:35:00,
2013-03-14 23:40:00,50.8,29.0,29.96,West,270,4.7,7.6,43,0.00,,,0.00,WUHU216HW,2013-03-15 05:40:00,
2013-03-14 23:45:00,50.2,27.9,29.97,NW,315,2.5,5.6,42,0.00,,,0.00,WUHU216HW,2013-03-15 05:45:00,
2013-03-14 23:50:00,49.9,27.6,29.96,NW,315,1.8,2.5,42,0.00,,,0.00,WUHU216HW,2013-03-15 05:50:00,
2013-03-14 23:55:00,49.7,27.5,29.96,NW,315,2.5,2.5,42,0.00,,,0.00,WUHU216HW,2013-03-15 05:55:00,